Weather at Drouin Airport

Public forecast

Using degrees Celsius for public forecast. Weather courtesy of forecast.io.

Closest aviation weather report (METAR) to Drouin Airport

Closest report is Melbourne International Airport, 56.8 nm (105.1 km) NW.

2024/07/14 17:00 (retrieved 26 minutes ago)

YMML 141700Z 27012KT CAVOK 07/04 Q1010

Closest aviation forecast (TAF) to Drouin Airport

Closest forecast is Melbourne International Airport, 56.8 nm (105.1 km) NW.

2024/07/14 15:55 (retrieved 2 hours ago)

TAF YMML 141412Z 1415/1518 27010KT 9999 -SHRA SCT015 BKN025 FM150300 26015KT 9999 -RA BKN025 FM150600 26018KT 9999 -RA SCT015 BKN020 FM151200 25020KT 9999 -RA BKN012 TEMPO 1506/1512 26020G30KT 5000 RA SCT008 BKN012 TEMPO 1512/1518 25022G32KT 3000 RA SCT005 BKN008